createdAt,value
2018-09-22T00:00:12.402Z,0
2018-09-22T00:01:12.362Z,0
2018-09-22T00:02:12.384Z,0
2018-09-22T00:03:12.367Z,0
2018-09-22T00:04:12.426Z,0
2018-09-22T00:05:12.309Z,0
2018-09-22T00:06:12.427Z,0
2018-09-22T00:07:12.401Z,0
2018-09-22T00:08:12.380Z,0
2018-09-22T00:09:12.382Z,0
2018-09-22T00:10:12.286Z,0
2018-09-22T00:11:12.337Z,0
2018-09-22T00:12:12.343Z,0
2018-09-22T00:13:12.393Z,0
2018-09-22T00:14:12.428Z,0
2018-09-22T00:15:12.398Z,0
2018-09-22T00:16:12.435Z,0
2018-09-22T00:17:12.352Z,0
2018-09-22T00:18:12.337Z,0
2018-09-22T00:19:12.304Z,0
2018-09-22T00:20:12.311Z,0
2018-09-22T00:21:12.382Z,0
2018-09-22T00:22:12.386Z,0
2018-09-22T00:23:12.372Z,0
2018-09-22T00:24:12.438Z,0
2018-09-22T00:25:12.389Z,0
2018-09-22T00:26:12.346Z,0
2018-09-22T00:27:12.366Z,0
2018-09-22T00:28:12.385Z,0
2018-09-22T00:29:12.387Z,0
2018-09-22T00:30:12.395Z,0
2018-09-22T00:31:12.376Z,0
2018-09-22T00:32:12.393Z,0
2018-09-22T00:33:12.388Z,0
2018-09-22T00:34:12.392Z,0
2018-09-22T00:35:12.390Z,0
2018-09-22T00:36:12.403Z,0
2018-09-22T00:37:12.322Z,0
2018-09-22T00:38:12.380Z,0
2018-09-22T00:39:12.351Z,0
2018-09-22T00:40:12.390Z,0
2018-09-22T00:41:12.419Z,0
2018-09-22T00:42:12.366Z,0
2018-09-22T00:43:12.367Z,0
2018-09-22T00:44:12.387Z,0
2018-09-22T00:45:12.392Z,0
2018-09-22T00:46:12.357Z,0
2018-09-22T00:47:12.332Z,0
2018-09-22T00:48:12.397Z,0
2018-09-22T00:49:12.365Z,0
2018-09-22T00:50:12.416Z,0
2018-09-22T00:51:12.437Z,0
2018-09-22T00:52:12.371Z,0
2018-09-22T00:53:12.439Z,0
2018-09-22T00:54:12.437Z,0
2018-09-22T00:55:12.431Z,0
2018-09-22T00:56:12.371Z,0
2018-09-22T00:57:12.391Z,0
2018-09-22T00:58:12.370Z,0
2018-09-22T00:59:12.404Z,0
2018-09-22T01:00:12.410Z,0
2018-09-22T01:01:12.406Z,0
2018-09-22T01:02:12.374Z,0
2018-09-22T01:03:12.305Z,0
2018-09-22T01:04:12.415Z,0
2018-09-22T01:05:12.337Z,0
2018-09-22T01:06:12.340Z,0
2018-09-22T01:07:12.413Z,0
2018-09-22T01:08:12.310Z,0
2018-09-22T01:09:12.339Z,0
2018-09-22T01:10:12.346Z,0
2018-09-22T01:11:12.417Z,0
2018-09-22T01:12:12.417Z,0
2018-09-22T01:13:12.346Z,0
2018-09-22T01:14:12.358Z,0
2018-09-22T01:15:12.420Z,0
2018-09-22T01:16:12.426Z,0
2018-09-22T01:17:12.350Z,0
2018-09-22T01:18:12.309Z,0
2018-09-22T01:19:12.421Z,0
2018-09-22T01:20:12.415Z,0
2018-09-22T01:21:12.337Z,0
2018-09-22T01:22:12.388Z,0
2018-09-22T01:23:12.324Z,0
2018-09-22T01:24:12.400Z,0
2018-09-22T01:25:12.344Z,0
2018-09-22T01:26:12.442Z,0
2018-09-22T01:27:12.328Z,0
2018-09-22T01:28:12.382Z,0
2018-09-22T01:29:12.449Z,0
2018-09-22T01:30:12.417Z,0
2018-09-22T01:31:12.432Z,0
2018-09-22T01:32:12.377Z,0
2018-09-22T01:33:12.360Z,0
2018-09-22T01:34:12.370Z,0
2018-09-22T01:35:12.435Z,0
2018-09-22T01:36:12.506Z,0
2018-09-22T01:37:12.361Z,0
2018-09-22T01:38:12.368Z,0
2018-09-22T01:39:12.445Z,0
2018-09-22T01:40:12.429Z,0
2018-09-22T01:41:12.349Z,0
2018-09-22T01:42:12.325Z,0
2018-09-22T01:43:12.350Z,0
2018-09-22T01:44:12.260Z,0
2018-09-22T01:45:12.405Z,0
2018-09-22T01:46:12.351Z,0
2018-09-22T01:47:12.353Z,0
2018-09-22T01:48:12.284Z,0
2018-09-22T01:49:12.302Z,0
2018-09-22T01:50:12.450Z,0
2018-09-22T01:51:12.396Z,0
2018-09-22T01:52:12.378Z,0
2018-09-22T01:53:12.473Z,0
2018-09-22T01:54:12.360Z,0
2018-09-22T01:55:12.445Z,0
2018-09-22T01:56:12.467Z,0
2018-09-22T01:57:12.476Z,0
2018-09-22T01:58:12.368Z,0
2018-09-22T01:59:12.413Z,0
2018-09-22T02:00:12.450Z,0
2018-09-22T02:01:12.459Z,0
2018-09-22T02:02:12.453Z,0
2018-09-22T02:03:12.455Z,0
2018-09-22T02:04:12.455Z,0
2018-09-22T02:05:12.456Z,0
2018-09-22T02:06:12.350Z,0
2018-09-22T02:07:12.398Z,0
2018-09-22T02:08:12.384Z,0
2018-09-22T02:09:12.443Z,0
2018-09-22T02:10:12.387Z,0
2018-09-22T02:11:12.373Z,0
2018-09-22T02:12:12.446Z,0
2018-09-22T02:13:12.450Z,0
2018-09-22T02:14:12.388Z,0
2018-09-22T02:15:12.457Z,0
2018-09-22T02:16:12.431Z,0
2018-09-22T02:17:12.416Z,0
2018-09-22T02:18:12.466Z,0
2018-09-22T02:19:12.473Z,0
2018-09-22T02:20:12.370Z,0
2018-09-22T02:21:12.439Z,0
2018-09-22T02:22:12.421Z,0
2018-09-22T02:23:12.387Z,0
2018-09-22T02:24:12.501Z,0
2018-09-22T02:25:12.467Z,0
2018-09-22T02:26:12.469Z,0
2018-09-22T02:27:12.483Z,0
2018-09-22T02:28:12.494Z,0
2018-09-22T02:29:12.481Z,0
2018-09-22T02:30:12.472Z,0
2018-09-22T02:31:12.400Z,0
2018-09-22T02:32:12.407Z,0
2018-09-22T02:33:12.473Z,0
2018-09-22T02:34:12.407Z,0
2018-09-22T02:35:12.466Z,0
2018-09-22T02:36:12.440Z,0
2018-09-22T02:37:12.480Z,0
2018-09-22T02:38:12.403Z,0
2018-09-22T02:39:12.409Z,0
2018-09-22T02:40:12.414Z,0
2018-09-22T02:41:12.409Z,0
2018-09-22T02:42:12.491Z,0
2018-09-22T02:43:12.479Z,0
2018-09-22T02:44:12.471Z,0
2018-09-22T02:45:12.414Z,0
2018-09-22T02:46:12.489Z,0
2018-09-22T02:47:12.486Z,0
2018-09-22T02:48:12.410Z,0
2018-09-22T02:49:12.471Z,0
2018-09-22T02:50:12.485Z,0
2018-09-22T02:51:12.488Z,0
2018-09-22T02:52:12.435Z,0
2018-09-22T02:53:16.701Z,0
2018-09-22T02:54:12.485Z,0
2018-09-22T02:55:12.503Z,0
2018-09-22T02:56:12.473Z,0
2018-09-22T02:57:12.467Z,0
2018-09-22T02:58:12.424Z,0
2018-09-22T02:59:12.418Z,0
2018-09-22T03:00:12.468Z,0
2018-09-22T03:01:12.462Z,0
2018-09-22T03:02:12.459Z,0
2018-09-22T03:03:12.459Z,0
2018-09-22T03:04:12.526Z,0
2018-09-22T03:05:12.418Z,0
2018-09-22T03:06:12.394Z,0
2018-09-22T03:07:12.520Z,0
2018-09-22T03:08:12.490Z,0
2018-09-22T03:09:12.434Z,0
2018-09-22T03:10:12.433Z,0
2018-09-22T03:11:12.498Z,0
2018-09-22T03:12:12.518Z,0
2018-09-22T03:13:12.511Z,0
2018-09-22T03:14:12.433Z,0
2018-09-22T03:15:12.554Z,0
2018-09-22T03:16:12.504Z,0
2018-09-22T03:17:12.447Z,0
2018-09-22T03:18:12.506Z,0
2018-09-22T03:19:12.519Z,0
2018-09-22T03:20:12.468Z,0
2018-09-22T03:21:12.386Z,0
2018-09-22T03:22:12.400Z,0
2018-09-22T03:23:12.452Z,0
2018-09-22T03:24:12.411Z,0
2018-09-22T03:25:12.403Z,0
2018-09-22T03:26:12.409Z,0
2018-09-22T03:27:12.384Z,0
2018-09-22T03:28:12.501Z,0
2018-09-22T03:29:12.403Z,0
2018-09-22T03:30:12.453Z,0
2018-09-22T03:31:12.486Z,0
2018-09-22T03:32:12.511Z,0
2018-09-22T03:33:12.449Z,0
2018-09-22T03:34:12.516Z,0
2018-09-22T03:35:12.513Z,0
2018-09-22T03:36:12.513Z,0
2018-09-22T03:37:12.481Z,0
2018-09-22T03:38:12.560Z,0
2018-09-22T03:39:12.417Z,0
2018-09-22T03:40:12.514Z,0
2018-09-22T03:41:12.511Z,0
2018-09-22T03:42:12.463Z,0
2018-09-22T03:43:12.516Z,0
2018-09-22T03:44:12.441Z,0
2018-09-22T03:45:12.441Z,0
2018-09-22T03:46:12.518Z,0
2018-09-22T03:47:12.447Z,0
2018-09-22T03:48:12.518Z,0
2018-09-22T03:49:12.517Z,0
2018-09-22T03:50:12.495Z,0
2018-09-22T03:51:12.412Z,0
2018-09-22T03:52:12.482Z,0
2018-09-22T03:53:12.479Z,0
2018-09-22T03:54:12.423Z,0
2018-09-22T03:55:12.484Z,0
2018-09-22T03:56:12.426Z,0
2018-09-22T03:57:12.395Z,0
2018-09-22T03:58:12.419Z,0
2018-09-22T03:59:12.483Z,0
2018-09-22T04:00:12.613Z,0
2018-09-22T04:01:12.493Z,0
2018-09-22T04:02:12.508Z,0
2018-09-22T04:03:12.595Z,0
2018-09-22T04:04:12.567Z,0
2018-09-22T04:05:12.503Z,0
2018-09-22T04:06:12.464Z,0
2018-09-22T04:07:12.507Z,0
2018-09-22T04:08:12.555Z,0
2018-09-22T04:09:12.480Z,0
2018-09-22T04:10:12.584Z,0
2018-09-22T04:11:12.463Z,0
2018-09-22T04:12:12.560Z,0
2018-09-22T04:13:12.557Z,0
2018-09-22T04:14:12.501Z,0
2018-09-22T04:15:12.514Z,0
2018-09-22T04:16:12.492Z,0
2018-09-22T04:17:12.508Z,0
2018-09-22T04:18:12.580Z,0
2018-09-22T04:19:12.541Z,0
2018-09-22T04:20:12.461Z,0
2018-09-22T04:21:12.500Z,0
2018-09-22T04:22:12.469Z,0
2018-09-22T04:23:12.445Z,0
2018-09-22T04:24:12.472Z,0
2018-09-22T04:25:12.450Z,0
2018-09-22T04:26:12.467Z,0
2018-09-22T04:27:12.499Z,0
2018-09-22T04:28:12.417Z,0
2018-09-22T04:29:12.409Z,0
2018-09-22T04:30:12.580Z,0
2018-09-22T04:31:12.565Z,0
2018-09-22T04:32:12.531Z,0
2018-09-22T04:33:12.660Z,0
2018-09-22T04:34:12.587Z,0
2018-09-22T04:35:12.553Z,4
2018-09-22T04:36:12.461Z,4
2018-09-22T04:37:12.559Z,4
2018-09-22T04:38:12.477Z,4
2018-09-22T04:39:12.528Z,4
2018-09-22T04:40:12.554Z,4
2018-09-22T04:41:12.595Z,12
2018-09-22T04:42:12.479Z,12
2018-09-22T04:43:12.538Z,12
2018-09-22T04:44:12.593Z,20
2018-09-22T04:45:12.540Z,24
2018-09-22T04:46:12.602Z,32
2018-09-22T04:47:12.568Z,32
2018-09-22T04:48:12.532Z,32
2018-09-22T04:49:12.604Z,32
2018-09-22T04:50:12.565Z,32
2018-09-22T04:51:12.564Z,32
2018-09-22T04:52:12.602Z,32
2018-09-22T04:53:12.530Z,32
2018-09-22T04:54:12.572Z,32
2018-09-22T04:55:12.601Z,32
2018-09-22T04:56:12.528Z,32
2018-09-22T04:57:12.536Z,32
2018-09-22T04:58:12.587Z,32
2018-09-22T04:59:12.632Z,32
2018-09-22T05:00:12.565Z,32
2018-09-22T05:01:12.479Z,32
2018-09-22T05:02:12.570Z,32
2018-09-22T05:03:12.493Z,32
2018-09-22T05:04:12.574Z,32
2018-09-22T05:05:12.497Z,32
2018-09-22T05:06:12.571Z,32
2018-09-22T05:07:12.586Z,32
2018-09-22T05:08:12.507Z,32
2018-09-22T05:09:12.539Z,32
2018-09-22T05:10:12.498Z,32
2018-09-22T05:11:12.598Z,32
2018-09-22T05:12:12.590Z,32
2018-09-22T05:13:12.580Z,32
2018-09-22T05:14:12.525Z,32
2018-09-22T05:15:12.554Z,32
2018-09-22T05:16:12.583Z,32
2018-09-22T05:17:12.666Z,32
2018-09-22T05:18:12.555Z,32
2018-09-22T05:19:12.557Z,32
2018-09-22T05:20:12.527Z,32
2018-09-22T05:21:12.593Z,32
2018-09-22T05:22:12.591Z,32
2018-09-22T05:23:12.601Z,32
2018-09-22T05:24:12.522Z,32
2018-09-22T05:25:12.593Z,32
2018-09-22T05:26:12.524Z,32
2018-09-22T05:27:12.555Z,32
2018-09-22T05:28:12.601Z,32
2018-09-22T05:29:12.495Z,32
2018-09-22T05:30:12.552Z,32
2018-09-22T05:31:12.577Z,32
2018-09-22T05:32:12.586Z,32
2018-09-22T05:33:12.488Z,32
2018-09-22T05:34:12.583Z,32
2018-09-22T05:35:12.461Z,32
2018-09-22T05:36:12.556Z,32
2018-09-22T05:37:12.576Z,32
2018-09-22T05:38:12.590Z,32
2018-09-22T05:39:12.581Z,32
2018-09-22T05:40:12.594Z,32
2018-09-22T05:41:12.506Z,32
2018-09-22T05:42:12.593Z,32
2018-09-22T05:43:12.525Z,6540
2018-09-22T05:44:12.535Z,6948
2018-09-22T05:45:12.522Z,7780
2018-09-22T05:46:12.520Z,8524
2018-09-22T05:47:12.509Z,9228
2018-09-22T05:48:12.713Z,9744
2018-09-22T05:49:12.535Z,10292
2018-09-22T05:50:12.541Z,10868
2018-09-22T05:51:12.542Z,11508
2018-09-22T05:52:12.609Z,12204
2018-09-22T05:53:12.545Z,11876
2018-09-22T05:54:12.615Z,10032
2018-09-22T05:55:12.612Z,7532
2018-09-22T05:56:12.574Z,7200
2018-09-22T05:57:12.629Z,7452
2018-09-22T05:58:12.653Z,7560
2018-09-22T05:59:12.549Z,7592
2018-09-22T06:00:12.538Z,8084
2018-09-22T06:01:12.613Z,7740
2018-09-22T06:02:12.643Z,7996
2018-09-22T06:03:12.589Z,8304
2018-09-22T06:04:12.621Z,9348
2018-09-22T06:05:12.628Z,10128
2018-09-22T06:06:12.632Z,11040
2018-09-22T06:07:12.565Z,11840
2018-09-22T06:08:12.599Z,12484
2018-09-22T06:09:12.540Z,14032
2018-09-22T06:10:12.638Z,14992
2018-09-22T06:11:12.523Z,15108
2018-09-22T06:12:12.675Z,15316
2018-09-22T06:13:12.678Z,15468
2018-09-22T06:14:12.645Z,14412
2018-09-22T06:15:12.585Z,14144
2018-09-22T06:16:12.649Z,14904
2018-09-22T06:17:12.582Z,15456
2018-09-22T06:18:12.589Z,15204
2018-09-22T06:19:12.535Z,14972
2018-09-22T06:20:12.630Z,14504
2018-09-22T06:21:12.563Z,14044
2018-09-22T06:22:12.634Z,14772
2018-09-22T06:23:12.672Z,14804
2018-09-22T06:24:12.569Z,12808
2018-09-22T06:25:12.751Z,13292
2018-09-22T06:26:12.571Z,13160
2018-09-22T06:27:12.572Z,12352
2018-09-22T06:28:12.642Z,12204
2018-09-22T06:29:12.569Z,13128
2018-09-22T06:30:12.651Z,14184
2018-09-22T06:31:12.606Z,14896
2018-09-22T06:32:12.647Z,15124
2018-09-22T06:33:12.619Z,15108
2018-09-22T06:34:12.666Z,15544
2018-09-22T06:35:12.598Z,15520
2018-09-22T06:36:12.620Z,15640
2018-09-22T06:37:12.671Z,15924
2018-09-22T06:38:12.640Z,16200
2018-09-22T06:39:12.579Z,16184
2018-09-22T06:40:12.685Z,16348
2018-09-22T06:41:12.685Z,17204
2018-09-22T06:42:12.663Z,17992
2018-09-22T06:43:12.560Z,18208
2018-09-22T06:44:12.629Z,18424
2018-09-22T06:45:12.669Z,18732
2018-09-22T06:46:12.743Z,18972
2018-09-22T06:47:12.656Z,19220
2018-09-22T06:48:12.548Z,19188
2018-09-22T06:49:12.615Z,19048
2018-09-22T06:50:12.683Z,18988
2018-09-22T06:51:12.655Z,19404
2018-09-22T06:52:12.582Z,20084
2018-09-22T06:53:12.658Z,20176
2018-09-22T06:54:12.662Z,20016
2018-09-22T06:55:12.654Z,19288
2018-09-22T06:56:12.664Z,19080
2018-09-22T06:57:12.692Z,19796
2018-09-22T06:58:12.664Z,20712
2018-09-22T06:59:12.588Z,21024
2018-09-22T07:00:12.667Z,21020
2018-09-22T07:01:12.623Z,20964
2018-09-22T07:02:12.584Z,21044
2018-09-22T07:03:12.619Z,20936
2018-09-22T07:04:12.625Z,21092
2018-09-22T07:05:12.666Z,22112
2018-09-22T07:06:12.697Z,23168
2018-09-22T07:07:12.584Z,24288
2018-09-22T07:08:12.644Z,25184
2018-09-22T07:09:12.627Z,25536
2018-09-22T07:10:12.637Z,25568
2018-09-22T07:11:12.682Z,26016
2018-09-22T07:12:12.626Z,27296
2018-09-22T07:13:12.641Z,27424
2018-09-22T07:14:12.639Z,27360
2018-09-22T07:15:12.649Z,28416
2018-09-22T07:16:12.604Z,29312
2018-09-22T07:17:12.613Z,29472
2018-09-22T07:18:12.666Z,29120
2018-09-22T07:19:12.666Z,31616
2018-09-22T07:20:12.710Z,30592
2018-09-22T07:21:12.697Z,29376
2018-09-22T07:22:12.634Z,29536
2018-09-22T07:23:12.580Z,30240
2018-09-22T07:24:12.713Z,31744
2018-09-22T07:25:12.583Z,32992
2018-09-22T07:26:12.600Z,32896
2018-09-22T07:27:12.614Z,33024
2018-09-22T07:28:12.636Z,32960
2018-09-22T07:29:12.626Z,32224
2018-09-22T07:30:12.581Z,32032
2018-09-22T07:31:12.624Z,31968
2018-09-22T07:32:12.611Z,32992
2018-09-22T07:33:12.683Z,34048
2018-09-22T07:34:12.687Z,35264
2018-09-22T07:35:12.693Z,36192
2018-09-22T07:36:12.685Z,38208
2018-09-22T07:37:12.696Z,37344
2018-09-22T07:38:12.617Z,35808
2018-09-22T07:39:12.618Z,37248
2018-09-22T07:40:12.695Z,36544
2018-09-22T07:41:12.617Z,36608
2018-09-22T07:42:12.706Z,35904
2018-09-22T07:43:12.612Z,36128
2018-09-22T07:44:12.685Z,35072
2018-09-22T07:45:12.610Z,36192
2018-09-22T07:46:12.659Z,36992
2018-09-22T07:47:12.619Z,37216
2018-09-22T07:48:12.592Z,39104
2018-09-22T07:49:12.612Z,41600
2018-09-22T07:50:12.691Z,42496
2018-09-22T07:51:12.626Z,41152
2018-09-22T07:52:12.629Z,44576
2018-09-22T07:53:12.629Z,45120
2018-09-22T07:54:12.662Z,42656
2018-09-22T07:55:12.633Z,42016
2018-09-22T07:56:12.696Z,42432
2018-09-22T07:57:12.746Z,40000
2018-09-22T07:58:12.631Z,39584
2018-09-22T07:59:12.527Z,39392
2018-09-22T08:00:12.669Z,39360
2018-09-22T08:01:12.697Z,38560
2018-09-22T08:02:12.697Z,38080
2018-09-22T08:03:12.608Z,38176
2018-09-22T08:04:12.635Z,38752
2018-09-22T08:05:12.592Z,40352
2018-09-22T08:06:12.628Z,39744
2018-09-22T08:07:12.663Z,39936
2018-09-22T08:08:12.625Z,40736
2018-09-22T08:09:12.692Z,40384
2018-09-22T08:10:12.625Z,40864
2018-09-22T08:11:12.706Z,41984
2018-09-22T08:12:12.768Z,43040
2018-09-22T08:13:12.707Z,43744
2018-09-22T08:14:12.628Z,45248
2018-09-22T08:15:12.709Z,45184
2018-09-22T08:16:12.639Z,46176
2018-09-22T08:17:12.736Z,46816
2018-09-22T08:18:12.689Z,48544
2018-09-22T08:19:12.743Z,50592
2018-09-22T08:20:12.711Z,53280
2018-09-22T08:21:12.715Z,53888
2018-09-22T08:22:12.682Z,60512
2018-09-22T08:23:12.745Z,67680
2018-09-22T08:24:12.748Z,68416
2018-09-22T08:25:12.797Z,64704
2018-09-22T08:26:12.715Z,57184
2018-09-22T08:27:12.757Z,52608
2018-09-22T08:28:12.660Z,52192
2018-09-22T08:29:12.639Z,46912
2018-09-22T08:30:12.686Z,51936
2018-09-22T08:31:12.749Z,57888
2018-09-22T08:32:12.761Z,59072
2018-09-22T08:33:12.755Z,57792
2018-09-22T08:34:12.648Z,61824
2018-09-22T08:35:12.630Z,62816
2018-09-22T08:36:12.818Z,51136
2018-09-22T08:37:12.724Z,50720
2018-09-22T08:38:12.692Z,47040
2018-09-22T08:39:12.741Z,46144
2018-09-22T08:40:12.656Z,49472
2018-09-22T08:41:12.716Z,51744
2018-09-22T08:42:12.709Z,55936
2018-09-22T08:43:12.652Z,58688
2018-09-22T08:44:12.713Z,48288
2018-09-22T08:45:12.727Z,49792
2018-09-22T08:46:12.667Z,45568
2018-09-22T08:47:12.615Z,44064
2018-09-22T08:48:12.684Z,51744
2018-09-22T08:49:12.667Z,46464
2018-09-22T08:50:12.602Z,51840
2018-09-22T08:51:12.805Z,53600
2018-09-22T08:52:12.661Z,60928
2018-09-22T08:53:12.696Z,65344
2018-09-22T08:54:12.717Z,65312
2018-09-22T08:55:12.719Z,64160
2018-09-22T08:56:12.686Z,67936
2018-09-22T08:57:12.663Z,76000
2018-09-22T08:58:12.702Z,66784
2018-09-22T08:59:12.766Z,51648
2018-09-22T09:00:12.681Z,51872
2018-09-22T09:01:12.746Z,78048
2018-09-22T09:02:12.679Z,73216
2018-09-22T09:03:12.700Z,68864
2018-09-22T09:04:12.753Z,78688
2018-09-22T09:05:12.844Z,79808
2018-09-22T09:06:12.682Z,66528
2018-09-22T09:07:12.750Z,70016
2018-09-22T09:08:12.683Z,66144
2018-09-22T09:09:12.754Z,74208
2018-09-22T09:10:12.820Z,54464
2018-09-22T09:11:12.707Z,72832
2018-09-22T09:12:12.674Z,55904
2018-09-22T09:13:12.757Z,78048
2018-09-22T09:14:12.708Z,83840
2018-09-22T09:15:12.745Z,81248
2018-09-22T09:16:12.743Z,76288
2018-09-22T09:17:12.702Z,73728
2018-09-22T09:18:12.747Z,71200
2018-09-22T09:19:12.749Z,68704
2018-09-22T09:20:12.756Z,73248
2018-09-22T09:21:12.631Z,80768
2018-09-22T09:22:12.747Z,92992
2018-09-22T09:23:12.656Z,100736
2018-09-22T09:24:12.680Z,101184
2018-09-22T09:25:12.653Z,86944
2018-09-22T09:26:12.680Z,62432
2018-09-22T09:27:12.746Z,90944
2018-09-22T09:28:12.669Z,62848
2018-09-22T09:29:12.686Z,70208
2018-09-22T09:30:12.752Z,52928
2018-09-22T09:31:12.781Z,50912
2018-09-22T09:32:12.800Z,57728
2018-09-22T09:33:12.687Z,74368
2018-09-22T09:34:12.736Z,61888
2018-09-22T09:35:12.740Z,53760
2018-09-22T09:36:12.767Z,61600
2018-09-22T09:37:12.767Z,75616
2018-09-22T09:38:12.792Z,59744
2018-09-22T09:39:12.786Z,68640
2018-09-22T09:40:12.728Z,59072
2018-09-22T09:41:12.803Z,60832
2018-09-22T09:42:12.796Z,57440
2018-09-22T09:43:12.831Z,53664
2018-09-22T09:44:12.802Z,48160
2018-09-22T09:45:12.793Z,46624
2018-09-22T09:46:12.801Z,46784
2018-09-22T09:47:12.717Z,49312
2018-09-22T09:48:12.691Z,44960
2018-09-22T09:49:12.777Z,45120
2018-09-22T09:50:12.804Z,40928
2018-09-22T09:51:12.776Z,40512
2018-09-22T09:52:12.778Z,41696
2018-09-22T09:53:12.703Z,41216
2018-09-22T09:54:12.821Z,36448
2018-09-22T09:55:12.801Z,30656
2018-09-22T09:56:12.806Z,31488
2018-09-22T09:57:12.686Z,32160
2018-09-22T09:58:12.790Z,33024
2018-09-22T09:59:12.784Z,35616
2018-09-22T10:00:12.755Z,40544
2018-09-22T10:01:12.823Z,48928
2018-09-22T10:02:12.748Z,54592
2018-09-22T10:03:12.790Z,59776
2018-09-22T10:04:12.832Z,65760
2018-09-22T10:05:12.757Z,75808
2018-09-22T10:06:12.764Z,63200
2018-09-22T10:07:12.775Z,55616
2018-09-22T10:08:12.839Z,50240
2018-09-22T10:09:12.754Z,48608
2018-09-22T10:10:12.869Z,50688
2018-09-22T10:11:12.834Z,54304
2018-09-22T10:12:12.758Z,57376
2018-09-22T10:13:12.765Z,62720
2018-09-22T10:14:12.713Z,58336
2018-09-22T10:15:12.796Z,59008
2018-09-22T10:16:12.830Z,54528
2018-09-22T10:17:12.840Z,48608
2018-09-22T10:18:12.719Z,46720
2018-09-22T10:19:12.823Z,45568
2018-09-22T10:20:12.830Z,41600
2018-09-22T10:21:12.734Z,39360
2018-09-22T10:22:12.802Z,37280
2018-09-22T10:23:12.804Z,36448
2018-09-22T10:24:12.806Z,35776
2018-09-22T10:25:12.736Z,34208
2018-09-22T10:26:12.778Z,32800
2018-09-22T10:27:12.740Z,33728
2018-09-22T10:28:12.809Z,37568
2018-09-22T10:29:12.745Z,41664
2018-09-22T10:30:12.839Z,38624
2018-09-22T10:31:12.781Z,36192
2018-09-22T10:32:12.767Z,32288
2018-09-22T10:33:12.807Z,31584
2018-09-22T10:34:12.808Z,34624
2018-09-22T10:35:12.847Z,36256
2018-09-22T10:36:12.807Z,38304
2018-09-22T10:37:12.786Z,41088
2018-09-22T10:38:12.809Z,43616
2018-09-22T10:39:12.842Z,46144
2018-09-22T10:40:12.810Z,46336
2018-09-22T10:41:12.786Z,45312
2018-09-22T10:42:12.881Z,45152
2018-09-22T10:43:12.749Z,45728
2018-09-22T10:44:12.852Z,50336
2018-09-22T10:45:12.816Z,57728
2018-09-22T10:46:12.852Z,65728
2018-09-22T10:47:12.750Z,70016
2018-09-22T10:48:12.790Z,72320
2018-09-22T10:49:12.825Z,74624
2018-09-22T10:50:12.791Z,76128
2018-09-22T10:51:12.848Z,74400
2018-09-22T10:52:12.744Z,69920
2018-09-22T10:53:12.851Z,73216
2018-09-22T10:54:12.828Z,77152
2018-09-22T10:55:12.824Z,60544
2018-09-22T10:56:12.824Z,58336
2018-09-22T10:57:12.869Z,73248
2018-09-22T10:58:12.844Z,58944
2018-09-22T10:59:12.830Z,71328
2018-09-22T11:00:12.768Z,75968
2018-09-22T11:01:12.788Z,82112
2018-09-22T11:02:12.744Z,87392
2018-09-22T11:03:12.771Z,90656
2018-09-22T11:04:12.777Z,85504
2018-09-22T11:05:12.827Z,81568
2018-09-22T11:06:12.825Z,81088
2018-09-22T11:07:12.829Z,85216
2018-09-22T11:08:12.750Z,75584
2018-09-22T11:09:12.827Z,65984
2018-09-22T11:10:12.821Z,44320
2018-09-22T11:11:12.761Z,45440
2018-09-22T11:12:12.752Z,49280
2018-09-22T11:13:12.744Z,48928
2018-09-22T11:14:12.788Z,69888
2018-09-22T11:15:12.755Z,49088
2018-09-22T11:16:12.832Z,49504
2018-09-22T11:17:12.859Z,59744
2018-09-22T11:18:12.832Z,79808
2018-09-22T11:19:12.762Z,77376
2018-09-22T11:20:12.718Z,60608
2018-09-22T11:21:12.848Z,52448
2018-09-22T11:22:12.842Z,55392
2018-09-22T11:23:12.815Z,57408
2018-09-22T11:24:12.820Z,51936
2018-09-22T11:25:12.822Z,45184
2018-09-22T11:26:12.861Z,43456
2018-09-22T11:27:12.886Z,46304
2018-09-22T11:28:12.855Z,53280
2018-09-22T11:29:12.852Z,53824
2018-09-22T11:30:12.881Z,53856
2018-09-22T11:31:12.781Z,53664
2018-09-22T11:32:12.858Z,52832
2018-09-22T11:33:12.854Z,51232
2018-09-22T11:34:12.742Z,48992
2018-09-22T11:35:12.850Z,47840
2018-09-22T11:36:12.796Z,47328
2018-09-22T11:37:12.854Z,48544
2018-09-22T11:38:12.894Z,51136
2018-09-22T11:39:12.791Z,54976
2018-09-22T11:40:12.850Z,55456
2018-09-22T11:41:12.779Z,55328
2018-09-22T11:42:12.837Z,54336
2018-09-22T11:43:12.830Z,51872
2018-09-22T11:44:12.875Z,49760
2018-09-22T11:45:12.859Z,48288
2018-09-22T11:46:12.899Z,48128
2018-09-22T11:47:12.867Z,49024
2018-09-22T11:48:12.859Z,49856
2018-09-22T11:49:12.882Z,51584
2018-09-22T11:50:12.896Z,56576
2018-09-22T11:51:12.780Z,62144
2018-09-22T11:52:12.858Z,69152
2018-09-22T11:53:12.784Z,73152
2018-09-22T11:54:12.740Z,75552
2018-09-22T11:55:12.895Z,73024
2018-09-22T11:56:12.792Z,63072
2018-09-22T11:57:12.758Z,60896
2018-09-22T11:58:12.862Z,61152
2018-09-22T11:59:12.786Z,76320
2018-09-22T12:00:12.825Z,83648
2018-09-22T12:01:12.885Z,72512
2018-09-22T12:02:12.875Z,66912
2018-09-22T12:03:12.817Z,62304
2018-09-22T12:04:12.811Z,59712
2018-09-22T12:05:12.880Z,63552
2018-09-22T12:06:12.902Z,69568
2018-09-22T12:07:12.885Z,69024
2018-09-22T12:08:12.813Z,69760
2018-09-22T12:09:12.824Z,64736
2018-09-22T12:10:12.814Z,60192
2018-09-22T12:11:12.811Z,56224
2018-09-22T12:12:12.813Z,56928
2018-09-22T12:13:12.888Z,58272
2018-09-22T12:14:12.904Z,56896
2018-09-22T12:15:12.895Z,62144
2018-09-22T12:16:12.888Z,68576
2018-09-22T12:17:12.892Z,72992
2018-09-22T12:18:12.935Z,77120
2018-09-22T12:19:12.832Z,78144
2018-09-22T12:20:12.818Z,77408
2018-09-22T12:21:12.797Z,78144
2018-09-22T12:22:12.864Z,79968
2018-09-22T12:23:12.759Z,81984
2018-09-22T12:24:12.843Z,85568
2018-09-22T12:25:12.814Z,85856
2018-09-22T12:26:12.756Z,81216
2018-09-22T12:27:12.865Z,77600
2018-09-22T12:28:12.785Z,65344
2018-09-22T12:29:12.843Z,60032
2018-09-22T12:30:12.820Z,53952
2018-09-22T12:31:12.873Z,52960
2018-09-22T12:32:12.879Z,53280
2018-09-22T12:33:12.872Z,54528
2018-09-22T12:34:12.884Z,57088
2018-09-22T12:35:12.874Z,57728
2018-09-22T12:36:12.884Z,57088
2018-09-22T12:37:12.888Z,57376
2018-09-22T12:38:12.816Z,57504
2018-09-22T12:39:12.824Z,56352
2018-09-22T12:40:12.805Z,55808
2018-09-22T12:41:12.905Z,55008
2018-09-22T12:42:12.912Z,55200
2018-09-22T12:43:12.823Z,55936
2018-09-22T12:44:13.024Z,53760
2018-09-22T12:45:12.905Z,52480
2018-09-22T12:46:12.898Z,50496
2018-09-22T12:47:12.913Z,49696
2018-09-22T12:48:12.921Z,49856
2018-09-22T12:49:12.800Z,48736
2018-09-22T12:50:12.843Z,51008
2018-09-22T12:51:12.838Z,54784
2018-09-22T12:52:12.844Z,59104
2018-09-22T12:53:12.842Z,53952
2018-09-22T12:54:12.912Z,51776
2018-09-22T12:55:12.796Z,50080
2018-09-22T12:56:12.907Z,48576
2018-09-22T12:57:12.912Z,47104
2018-09-22T12:58:12.906Z,45824
2018-09-22T12:59:12.813Z,45632
2018-09-22T13:00:12.848Z,44896
2018-09-22T13:01:12.912Z,44320
2018-09-22T13:02:12.868Z,42528
2018-09-22T13:03:12.850Z,40768
2018-09-22T13:04:12.842Z,39104
2018-09-22T13:05:12.841Z,38944
2018-09-22T13:06:12.869Z,40384
2018-09-22T13:07:12.901Z,42400
2018-09-22T13:08:12.819Z,44864
2018-09-22T13:09:12.894Z,46816
2018-09-22T13:10:12.787Z,49952
2018-09-22T13:11:12.800Z,52192
2018-09-22T13:12:12.828Z,48960
2018-09-22T13:13:12.927Z,47904
2018-09-22T13:14:12.962Z,46016
2018-09-22T13:15:12.819Z,43712
2018-09-22T13:16:12.960Z,41024
2018-09-22T13:17:12.923Z,40000
2018-09-22T13:18:12.965Z,39648
2018-09-22T13:19:12.949Z,40448
2018-09-22T13:20:12.933Z,42112
2018-09-22T13:21:12.855Z,44064
2018-09-22T13:22:12.948Z,43744
2018-09-22T13:23:12.908Z,43040
2018-09-22T13:24:12.855Z,42496
2018-09-22T13:25:12.988Z,40224
2018-09-22T13:26:12.902Z,38784
2018-09-22T13:27:12.912Z,36928
2018-09-22T13:28:12.954Z,35456
2018-09-22T13:29:12.931Z,33984
2018-09-22T13:30:12.899Z,32192
2018-09-22T13:31:12.937Z,32032
2018-09-22T13:32:12.883Z,33312
2018-09-22T13:33:12.793Z,34624
2018-09-22T13:34:12.839Z,34336
2018-09-22T13:35:12.882Z,34048